Terminal Aerodrome Forecast
Issued by NWS Pocatello, ID

Home | Current Version | Previous Version | Text Only | Print | Product List | Glossary On
Versions: 1 2 3 4 5 6 7 8 9 10 11 12
000
FTUS45 KPIH 031127
TAFBYI
TAF
KBYI 031127Z 0312/0412 25010KT P6SM VCSH FEW008 SCT100 BKN130
     FM031400 26015KT P6SM VCTS FEW060CB BKN100 OVC180
     FM031700 28015G25KT P6SM -SHRA VCTS SCT070CB BKN100 OVC180
     FM040000 21010KT P6SM VCTS SCT050CB BKN100 BKN180
     FM040200 16008KT P6SM SCT090 SCT180=

USA.gov is the U.S. government's official web portal to all federal, state and local government web resources and services.